Time;durP1;ratioP1;P1;durP2;ratioP2;P2;SDS_P1;SDS_P2;PMS_P1;PMS_P2;Temp;Humidity;BMP_temperature;BMP_pressure;BME280_temperature;BME280_humidity;BME280_pressure;Samples;Min_cycle;Max_cycle;Signal;HPM_P1;HPM_P2
2024/02/19 00:00:49;;;;;;;14.35;3.30;;;9.70;99.90;;;;;;5040924;28;20125;-33
2024/02/19 00:03:18;;;;;;;11.48;2.33;;;9.70;99.90;;;;;;5041547;28;20051;-34
2024/02/19 00:05:47;;;;;;;12.88;3.08;;;9.70;99.90;;;;;;5041173;28;20024;-37
2024/02/19 00:08:19;;;;;;;6.95;2.03;;;9.70;99.90;;;;;;5040162;28;20472;-36
2024/02/19 00:10:45;;;;;;;11.20;2.20;;;9.70;99.90;;;;;;5040964;28;20025;-35
2024/02/19 00:13:10;;;;;;;10.27;2.42;;;9.70;99.90;;;;;;5040498;28;20477;-34
2024/02/19 00:15:36;;;;;;;11.70;2.47;;;9.70;99.90;;;;;;5039775;28;20016;-37
2024/02/19 00:18:06;;;;;;;11.63;2.55;;;9.80;99.90;;;;;;5040908;28;20384;-37
2024/02/19 00:20:32;;;;;;;14.10;3.05;;;9.70;99.90;;;;;;5040792;28;20384;-35
2024/02/19 00:23:00;;;;;;;13.05;2.50;;;9.70;99.90;;;;;;5040590;28;20538;-32
2024/02/19 00:25:26;;;;;;;15.30;2.65;;;9.70;99.90;;;;;;5041095;28;20023;-35
2024/02/19 00:27:52;;;;;;;14.65;3.08;;;9.70;99.90;;;;;;5040585;28;20032;-36
2024/02/19 00:30:17;;;;;;;16.80;3.08;;;9.70;99.90;;;;;;5039786;28;20415;-38
2024/02/19 00:32:43;;;;;;;13.38;2.83;;;9.70;99.90;;;;;;5040422;28;20522;-35
2024/02/19 00:35:08;;;;;;;10.70;2.40;;;9.70;99.90;;;;;;5039937;28;20080;-35
2024/02/19 00:37:37;;;;;;;12.75;2.40;;;9.70;99.90;;;;;;5036117;28;20109;-37
2024/02/19 00:40:04;;;;;;;11.95;2.45;;;9.70;99.90;;;;;;5040020;28;20036;-33
2024/02/19 00:42:30;;;;;;;8.85;2.30;;;9.70;99.90;;;;;;5039186;28;20029;-35
2024/02/19 00:44:55;;;;;;;8.02;2.00;;;9.70;99.90;;;;;;5039937;28;20095;-32
2024/02/19 00:47:21;;;;;;;7.13;2.00;;;9.70;99.90;;;;;;5039984;28;20037;-33
2024/02/19 00:49:46;;;;;;;9.88;2.30;;;9.70;99.90;;;;;;5039633;28;20029;-35
2024/02/19 00:52:12;;;;;;;7.05;1.90;;;9.80;99.90;;;;;;5040119;28;20948;-32
2024/02/19 00:54:38;;;;;;;13.30;2.42;;;9.70;99.90;;;;;;5039945;28;20028;-34
2024/02/19 00:57:03;;;;;;;18.13;3.58;;;9.70;99.90;;;;;;5039222;28;20021;-37
2024/02/19 00:59:29;;;;;;;12.82;2.33;;;9.70;99.90;;;;;;5040777;28;20025;-36
2024/02/19 01:01:54;;;;;;;13.13;2.80;;;9.70;99.90;;;;;;5040653;28;20036;-37
2024/02/19 01:04:20;;;;;;;11.90;2.72;;;9.70;99.90;;;;;;5039738;28;20032;-35
2024/02/19 01:06:45;;;;;;;11.23;2.72;;;9.70;99.90;;;;;;5041010;28;20032;-35
2024/02/19 01:09:11;;;;;;;10.75;3.10;;;9.70;99.90;;;;;;5039896;28;20079;-36
2024/02/19 01:11:37;;;;;;;10.63;2.08;;;9.70;99.90;;;;;;5038868;28;20048;-35
2024/02/19 01:14:02;;;;;;;10.43;2.28;;;9.70;99.90;;;;;;5039543;28;20035;-34
2024/02/19 01:16:28;;;;;;;11.10;2.40;;;9.70;99.90;;;;;;5039716;28;20033;-37
2024/02/19 01:18:53;;;;;;;10.98;3.03;;;9.70;99.90;;;;;;5038669;28;20017;-37
2024/02/19 01:21:22;;;;;;;10.32;2.28;;;9.70;99.90;;;;;;5039470;28;20045;-36
2024/02/19 01:23:47;;;;;;;7.43;2.28;;;9.70;99.90;;;;;;5039742;28;20029;-36
2024/02/19 01:26:18;;;;;;;10.95;3.00;;;9.70;99.90;;;;;;5038296;28;20045;-37
2024/02/19 01:28:43;;;;;;;9.95;2.08;;;9.70;99.90;;;;;;5040095;28;20029;-36
2024/02/19 01:31:09;;;;;;;11.32;2.35;;;9.70;99.90;;;;;;5038828;28;20066;-36
2024/02/19 01:33:38;;;;;;;14.10;2.30;;;9.70;99.90;;;;;;5039096;28;20063;-35
2024/02/19 01:36:04;;;;;;;12.93;2.63;;;9.70;99.90;;;;;;5039922;28;20031;-36
2024/02/19 01:38:33;;;;;;;9.88;2.28;;;9.70;99.90;;;;;;5039453;28;20665;-34
2024/02/19 01:41:05;;;;;;;11.13;2.60;;;9.70;99.90;;;;;;5039034;28;20044;-36
2024/02/19 01:43:30;;;;;;;10.37;1.83;;;9.70;99.90;;;;;;5039107;28;20064;-31
2024/02/19 01:45:56;;;;;;;7.35;2.10;;;9.70;99.90;;;;;;5039126;28;20620;-35
2024/02/19 01:48:22;;;;;;;11.05;2.38;;;9.70;99.90;;;;;;5039528;28;20017;-34
2024/02/19 01:50:51;;;;;;;9.57;2.10;;;9.70;99.90;;;;;;5039689;28;20025;-36
2024/02/19 01:53:17;;;;;;;10.00;2.20;;;9.70;99.90;;;;;;5042505;28;20102;-36
2024/02/19 01:55:45;;;;;;;7.22;2.15;;;9.70;99.90;;;;;;5044023;28;20028;-36
2024/02/19 01:58:14;;;;;;;16.35;2.63;;;9.70;99.90;;;;;;5043198;28;20025;-37
2024/02/19 02:00:40;;;;;;;16.83;3.17;;;9.70;99.90;;;;;;5042936;28;20135;-35
2024/02/19 02:03:09;;;;;;;11.95;2.58;;;9.70;99.90;;;;;;5043118;28;20058;-34
2024/02/19 02:05:35;;;;;;;9.55;2.58;;;9.70;99.90;;;;;;5042924;28;20841;-37
2024/02/19 02:08:05;;;;;;;9.00;2.38;;;9.70;99.90;;;;;;5042938;28;20799;-35
2024/02/19 02:10:31;;;;;;;11.73;2.90;;;9.70;99.90;;;;;;5043057;28;20033;-33
2024/02/19 02:12:57;;;;;;;17.95;3.25;;;9.70;99.90;;;;;;5042817;28;20055;-32
2024/02/19 02:15:22;;;;;;;13.52;2.72;;;9.70;99.90;;;;;;5041769;28;20028;-34
2024/02/19 02:17:48;;;;;;;12.60;2.45;;;9.60;99.90;;;;;;5043256;28;20642;-37
2024/02/19 02:20:13;;;;;;;16.48;2.80;;;9.60;99.90;;;;;;5042245;28;20032;-34
2024/02/19 02:22:40;;;;;;;14.23;3.15;;;9.60;99.90;;;;;;5042599;28;20037;-37
2024/02/19 02:25:06;;;;;;;10.15;1.98;;;9.60;99.90;;;;;;5043299;28;20123;-36
2024/02/19 02:27:34;;;;;;;10.43;2.17;;;9.50;99.90;;;;;;5042844;28;20510;-36
2024/02/19 02:30:08;;;;;;;8.48;1.77;;;9.50;99.90;;;;;;5041828;28;20376;-34
2024/02/19 02:32:34;;;;;;;7.25;1.52;;;9.50;99.90;;;;;;5041466;28;20025;-35
2024/02/19 02:35:00;;;;;;;10.98;2.00;;;9.50;99.90;;;;;;5041473;28;20479;-36
2024/02/19 02:37:26;;;;;;;13.73;2.40;;;9.50;99.90;;;;;;5040464;28;20025;-34
2024/02/19 02:39:52;;;;;;;12.63;2.15;;;9.50;99.90;;;;;;5041719;28;20024;-36
2024/02/19 02:42:18;;;;;;;10.30;1.77;;;9.50;99.90;;;;;;5040544;28;20134;-36
2024/02/19 02:44:43;;;;;;;10.85;1.95;;;9.50;99.90;;;;;;5042040;28;20020;-36
2024/02/19 02:47:12;;;;;;;11.65;1.90;;;9.50;99.90;;;;;;5042881;28;20111;-37
2024/02/19 02:49:38;;;;;;;7.47;1.55;;;9.50;99.90;;;;;;5042407;28;20024;-32
2024/02/19 02:52:03;;;;;;;9.30;2.15;;;9.50;99.90;;;;;;5039131;28;20385;-36
2024/02/19 02:54:29;;;;;;;8.00;1.70;;;9.50;99.90;;;;;;5042945;28;20472;-36
2024/02/19 02:56:55;;;;;;;7.88;1.65;;;9.40;99.90;;;;;;5041449;28;20071;-35
2024/02/19 02:59:20;;;;;;;8.70;2.28;;;9.40;99.90;;;;;;5042932;28;20193;-38
2024/02/19 03:01:49;;;;;;;8.30;1.60;;;9.40;99.90;;;;;;5042387;28;20045;-36
2024/02/19 03:04:16;;;;;;;8.02;1.60;;;9.40;99.90;;;;;;5022028;28;20022;-38
2024/02/19 03:06:41;;;;;;;7.38;1.70;;;9.40;99.90;;;;;;5037265;28;20703;-34
2024/02/19 03:09:07;;;;;;;11.18;2.00;;;9.40;99.90;;;;;;5042172;28;20027;-35
2024/02/19 03:11:32;;;;;;;8.80;2.00;;;9.40;99.90;;;;;;5041351;28;20253;-36
2024/02/19 03:13:58;;;;;;;10.05;2.22;;;9.40;99.90;;;;;;5042921;28;20033;-39
2024/02/19 03:16:25;;;;;;;10.90;2.22;;;9.40;99.90;;;;;;5042138;28;20052;-35
2024/02/19 03:18:50;;;;;;;8.77;1.77;;;9.40;99.90;;;;;;5041771;28;20029;-36
2024/02/19 03:21:17;;;;;;;6.95;2.38;;;9.50;99.90;;;;;;5041737;28;20494;-37
2024/02/19 03:23:52;;;;;;;10.27;1.90;;;9.50;99.90;;;;;;5042435;28;20112;-36
2024/02/19 03:26:25;;;;;;;9.23;2.17;;;9.50;99.90;;;;;;5041583;28;20036;-35
2024/02/19 03:28:50;;;;;;;9.18;2.10;;;9.50;99.90;;;;;;5041729;28;20021;-37
2024/02/19 03:31:16;;;;;;;8.80;2.30;;;9.50;99.90;;;;;;5041288;28;20020;-35
2024/02/19 03:33:42;;;;;;;8.38;2.03;;;9.50;99.90;;;;;;5041460;28;20029;-34
2024/02/19 03:36:09;;;;;;;7.55;1.58;;;9.50;99.90;;;;;;5041578;28;20071;-35
2024/02/19 03:38:36;;;;;;;12.30;2.45;;;9.50;99.90;;;;;;5040364;28;20024;-36
2024/02/19 03:41:04;;;;;;;11.38;2.35;;;9.50;99.90;;;;;;5041440;28;20124;-35
2024/02/19 03:43:30;;;;;;;7.43;1.40;;;9.50;99.90;;;;;;5041249;28;20029;-37
2024/02/19 03:45:56;;;;;;;8.98;2.90;;;9.50;99.90;;;;;;5040282;28;20043;-36
2024/02/19 03:48:21;;;;;;;11.57;2.75;;;9.50;99.90;;;;;;5040969;28;20029;-37
2024/02/19 03:50:47;;;;;;;9.35;2.28;;;9.60;99.90;;;;;;5042536;28;20071;-36
2024/02/19 03:53:13;;;;;;;8.48;2.38;;;9.50;99.90;;;;;;5040715;28;20017;-33
2024/02/19 03:55:38;;;;;;;8.10;2.10;;;9.60;99.90;;;;;;5041718;28;20200;-36
2024/02/19 03:58:04;;;;;;;8.30;1.98;;;9.60;99.90;;;;;;5040696;28;20463;-36
2024/02/19 04:00:30;;;;;;;7.68;2.30;;;9.60;99.90;;;;;;5040063;28;20021;-33
2024/02/19 04:02:56;;;;;;;13.85;2.45;;;9.60;99.90;;;;;;5040924;28;20156;-36
2024/02/19 04:05:21;;;;;;;14.95;2.88;;;9.60;99.90;;;;;;5040773;28;20430;-34
2024/02/19 04:07:47;;;;;;;10.80;2.65;;;9.60;99.90;;;;;;5040025;28;20793;-34
2024/02/19 04:10:13;;;;;;;17.02;4.40;;;9.60;99.90;;;;;;5040274;28;20017;-31
2024/02/19 04:12:39;;;;;;;8.27;2.60;;;9.50;99.90;;;;;;5040539;28;20048;-33
2024/02/19 04:15:05;;;;;;;11.70;2.40;;;9.60;99.90;;;;;;5039039;28;20021;-36
2024/02/19 04:17:33;;;;;;;16.42;3.83;;;9.60;99.90;;;;;;5040619;28;20029;-32
2024/02/19 04:20:01;;;;;;;15.07;3.10;;;9.60;99.90;;;;;;5040990;28;20120;-35
2024/02/19 04:22:26;;;;;;;12.75;3.13;;;9.50;99.90;;;;;;5039786;28;20670;-36
2024/02/19 04:24:55;;;;;;;9.80;2.90;;;9.50;99.90;;;;;;5040853;28;20734;-35
2024/02/19 04:27:20;;;;;;;14.98;4.00;;;9.50;99.90;;;;;;5040948;28;20033;-31
2024/02/19 04:29:46;;;;;;;11.40;3.13;;;9.50;99.90;;;;;;5039831;28;20033;-35
2024/02/19 04:32:12;;;;;;;11.98;3.00;;;9.50;99.90;;;;;;5040769;28;20847;-35
2024/02/19 04:34:37;;;;;;;11.20;3.67;;;9.50;99.90;;;;;;5040816;28;20028;-35
2024/02/19 04:37:03;;;;;;;10.27;2.40;;;9.50;99.90;;;;;;5040876;28;20033;-36
2024/02/19 04:39:28;;;;;;;16.02;2.88;;;9.60;99.90;;;;;;5040240;28;20021;-34
2024/02/19 04:41:54;;;;;;;14.13;2.88;;;9.50;99.90;;;;;;5039751;28;20097;-33
2024/02/19 04:44:19;;;;;;;10.18;2.33;;;9.50;99.90;;;;;;5039481;28;20078;-34
2024/02/19 04:46:45;;;;;;;13.77;3.03;;;9.50;99.90;;;;;;5040026;28;20133;-35
2024/02/19 04:49:17;;;;;;;14.80;2.75;;;9.50;99.90;;;;;;5038627;28;20021;-37
2024/02/19 04:51:42;;;;;;;9.90;2.10;;;9.60;99.90;;;;;;5040563;28;20044;-36
2024/02/19 04:54:08;;;;;;;10.35;2.40;;;9.50;99.90;;;;;;5039726;28;20032;-37
2024/02/19 04:56:33;;;;;;;9.15;2.47;;;9.60;99.90;;;;;;5039417;28;20037;-33
2024/02/19 04:59:02;;;;;;;9.70;3.40;;;9.60;99.90;;;;;;5039426;28;20029;-36
2024/02/19 05:01:31;;;;;;;9.88;2.13;;;9.60;99.90;;;;;;5039653;28;20048;-32
2024/02/19 05:03:57;;;;;;;7.50;2.00;;;9.60;99.90;;;;;;5039543;28;20074;-37
2024/02/19 05:06:23;;;;;;;5.32;2.00;;;9.60;99.90;;;;;;5039655;28;20025;-35
2024/02/19 05:08:48;;;;;;;9.68;2.10;;;9.60;99.90;;;;;;5040523;28;20135;-35
2024/02/19 05:11:14;;;;;;;8.55;2.05;;;9.60;99.90;;;;;;5039254;28;20045;-36
2024/02/19 05:13:40;;;;;;;9.02;2.35;;;9.60;99.90;;;;;;5040270;28;20029;-35
2024/02/19 05:16:06;;;;;;;9.05;2.75;;;9.60;99.90;;;;;;5039796;28;20027;-35
2024/02/19 05:18:32;;;;;;;7.75;2.17;;;9.60;99.90;;;;;;5039843;28;20021;-33
2024/02/19 05:20:57;;;;;;;10.02;2.33;;;9.60;99.90;;;;;;5039898;28;20567;-33
2024/02/19 05:23:23;;;;;;;8.52;2.20;;;9.60;99.90;;;;;;5039819;28;20040;-36
2024/02/19 05:25:48;;;;;;;13.43;3.72;;;9.60;99.90;;;;;;5039085;28;20136;-37
2024/02/19 05:28:14;;;;;;;11.85;3.58;;;9.60;99.90;;;;;;5039770;28;20124;-36
2024/02/19 05:30:39;;;;;;;11.93;3.17;;;9.50;99.90;;;;;;5040373;28;20013;-33
2024/02/19 05:33:05;;;;;;;11.50;2.90;;;9.50;99.90;;;;;;5039251;28;20036;-33
2024/02/19 05:35:31;;;;;;;11.05;3.10;;;9.50;99.90;;;;;;5039672;28;20113;-35
2024/02/19 05:37:56;;;;;;;14.80;3.25;;;9.50;99.90;;;;;;5039314;28;20044;-36
2024/02/19 05:40:22;;;;;;;9.00;2.85;;;9.50;99.90;;;;;;5039809;28;20029;-32
2024/02/19 05:42:48;;;;;;;11.80;3.63;;;9.60;99.90;;;;;;5040366;28;20468;-32
2024/02/19 05:45:13;;;;;;;9.90;3.22;;;9.60;99.90;;;;;;5039166;28;20021;-35
2024/02/19 05:47:42;;;;;;;9.25;2.63;;;9.50;99.90;;;;;;5039308;28;20025;-37
2024/02/19 05:50:08;;;;;;;9.57;2.90;;;9.60;99.90;;;;;;5039837;28;20673;-34
2024/02/19 05:52:34;;;;;;;12.95;2.83;;;9.60;99.90;;;;;;5038894;28;20029;-36
2024/02/19 05:55:06;;;;;;;10.70;2.60;;;9.60;99.90;;;;;;5039224;28;20029;-35
2024/02/19 05:57:35;;;;;;;8.07;2.38;;;9.60;99.90;;;;;;5039261;28;20061;-36
2024/02/19 06:00:00;;;;;;;9.98;2.47;;;9.60;99.90;;;;;;5039260;28;20356;-35
2024/02/19 06:02:26;;;;;;;10.15;3.35;;;9.60;99.90;;;;;;5039023;28;20480;-37
2024/02/19 06:04:51;;;;;;;11.13;2.65;;;9.60;99.90;;;;;;5039171;28;20622;-37
2024/02/19 06:07:17;;;;;;;10.68;2.90;;;9.60;99.90;;;;;;5038516;28;20068;-34
2024/02/19 06:09:43;;;;;;;11.25;2.92;;;9.60;99.90;;;;;;5039560;28;20072;-38
2024/02/19 06:12:09;;;;;;;12.27;3.30;;;9.60;99.90;;;;;;5038611;28;20055;-34
2024/02/19 06:14:34;;;;;;;9.18;2.80;;;9.60;99.90;;;;;;5039386;28;20136;-34
2024/02/19 06:17:00;;;;;;;10.70;3.40;;;9.60;99.90;;;;;;5039435;28;20031;-35
2024/02/19 06:19:25;;;;;;;9.23;2.88;;;9.60;99.90;;;;;;5039731;28;20145;-37
2024/02/19 06:21:51;;;;;;;8.85;3.38;;;9.60;99.90;;;;;;5039211;28;20040;-35
2024/02/19 06:24:16;;;;;;;10.90;3.28;;;9.60;99.90;;;;;;5038737;28;20122;-36
2024/02/19 06:26:42;;;;;;;8.63;3.30;;;9.60;99.90;;;;;;5039215;28;20039;-35
2024/02/19 06:29:10;;;;;;;6.30;3.05;;;9.60;99.90;;;;;;5038198;28;20025;-33
2024/02/19 06:31:36;;;;;;;8.85;3.00;;;9.60;99.90;;;;;;5039271;28;20025;-35
2024/02/19 06:34:03;;;;;;;15.35;3.95;;;9.60;99.90;;;;;;5039235;28;20041;-32
2024/02/19 06:36:31;;;;;;;10.63;3.75;;;9.60;99.90;;;;;;5038357;28;20578;-35
2024/02/19 06:38:56;;;;;;;12.02;4.25;;;9.60;99.90;;;;;;5042150;28;20060;-36
2024/02/19 06:41:22;;;;;;;13.38;3.60;;;9.60;99.90;;;;;;5041981;28;20159;-36
2024/02/19 06:43:47;;;;;;;8.75;3.45;;;9.60;99.90;;;;;;5050180;28;20021;-36
2024/02/19 06:46:15;;;;;;;8.45;3.80;;;9.60;99.90;;;;;;5045993;28;20025;-37
2024/02/19 06:48:41;;;;;;;8.35;3.95;;;9.60;99.90;;;;;;5042099;28;20029;-37
2024/02/19 06:51:07;;;;;;;11.35;3.85;;;9.60;99.90;;;;;;5042420;28;20017;-34
2024/02/19 06:53:33;;;;;;;10.60;3.58;;;9.60;99.90;;;;;;5039451;28;20099;-35
2024/02/19 06:55:58;;;;;;;9.30;3.78;;;9.60;99.90;;;;;;5040872;28;20025;-37
2024/02/19 06:58:24;;;;;;;12.63;3.47;;;9.60;99.90;;;;;;5040855;28;20028;-35
2024/02/19 07:00:50;;;;;;;10.32;4.00;;;9.60;99.90;;;;;;5040744;28;20688;-35
2024/02/19 07:03:16;;;;;;;9.68;3.58;;;9.60;99.90;;;;;;5040334;28;20058;-35
2024/02/19 07:05:42;;;;;;;10.93;3.75;;;9.60;99.90;;;;;;5042170;28;20526;-37
2024/02/19 07:08:08;;;;;;;10.13;3.80;;;9.60;99.90;;;;;;5041148;28;20562;-38
2024/02/19 07:10:33;;;;;;;8.38;3.08;;;9.70;99.90;;;;;;5040352;28;20017;-36
2024/02/19 07:12:59;;;;;;;12.68;4.32;;;9.70;99.90;;;;;;5041168;28;20049;-34
2024/02/19 07:15:27;;;;;;;6.57;3.28;;;9.70;99.90;;;;;;5041054;28;20070;-33
2024/02/19 07:17:52;;;;;;;12.32;3.72;;;9.70;99.90;;;;;;5040791;28;20102;-36
2024/02/19 07:20:18;;;;;;;12.73;3.65;;;9.70;99.90;;;;;;5040941;28;20029;-35
2024/02/19 07:22:44;;;;;;;9.52;3.67;;;9.70;99.90;;;;;;5041054;28;20114;-36
2024/02/19 07:25:09;;;;;;;7.88;3.20;;;9.80;99.90;;;;;;5040040;28;20518;-35
2024/02/19 07:27:35;;;;;;;9.65;2.67;;;9.80;99.90;;;;;;5040473;28;20028;-37
2024/02/19 07:30:01;;;;;;;11.05;3.55;;;9.80;99.90;;;;;;5040474;28;20048;-37
2024/02/19 07:32:26;;;;;;;6.15;2.67;;;9.80;99.90;;;;;;5040170;28;20033;-33
2024/02/19 07:34:52;;;;;;;5.63;3.10;;;9.80;99.90;;;;;;5041200;28;20029;-38
2024/02/19 07:37:18;;;;;;;10.43;3.10;;;9.90;99.90;;;;;;5040770;28;20033;-34
2024/02/19 07:39:43;;;;;;;8.35;3.55;;;9.90;99.90;;;;;;5040902;28;20017;-37
2024/02/19 07:42:09;;;;;;;8.80;3.35;;;9.90;99.90;;;;;;5041052;28;20025;-35
2024/02/19 07:44:35;;;;;;;8.65;2.85;;;9.90;99.90;;;;;;5040054;28;20726;-34
2024/02/19 07:47:04;;;;;;;12.65;3.80;;;9.90;99.90;;;;;;5041145;28;20159;-35
2024/02/19 07:49:29;;;;;;;10.10;3.35;;;9.90;99.90;;;;;;5039695;28;20021;-36
2024/02/19 07:51:55;;;;;;;10.88;3.47;;;9.90;99.90;;;;;;5039365;28;20021;-36
2024/02/19 07:54:21;;;;;;;10.35;3.67;;;10.00;99.90;;;;;;5041945;28;20108;-37
2024/02/19 07:56:46;;;;;;;12.93;3.72;;;10.00;99.90;;;;;;5041194;28;20090;-36
2024/02/19 07:59:12;;;;;;;10.65;3.63;;;10.00;99.90;;;;;;5040165;28;20057;-36
2024/02/19 08:01:38;;;;;;;11.35;3.65;;;10.00;99.90;;;;;;5039882;28;20396;-41
2024/02/19 08:04:04;;;;;;;9.20;3.13;;;10.10;99.90;;;;;;5039443;28;20543;-37
2024/02/19 08:06:29;;;;;;;11.80;3.47;;;10.10;99.90;;;;;;5038559;28;20108;-33
2024/02/19 08:08:55;;;;;;;11.75;3.97;;;10.10;99.90;;;;;;5038841;28;20031;-35
2024/02/19 08:11:21;;;;;;;13.15;3.65;;;10.20;99.90;;;;;;5039070;28;20151;-33
2024/02/19 08:13:47;;;;;;;11.23;3.38;;;10.20;99.90;;;;;;5039275;28;20025;-34
2024/02/19 08:16:13;;;;;;;10.02;3.55;;;10.30;99.90;;;;;;5039378;28;20025;-33
2024/02/19 08:18:39;;;;;;;10.32;3.35;;;10.30;99.90;;;;;;5040129;28;20124;-34
2024/02/19 08:21:04;;;;;;;12.48;3.53;;;10.40;99.90;;;;;;5039435;28;20033;-36
2024/02/19 08:23:30;;;;;;;8.27;2.97;;;10.40;99.90;;;;;;5040356;28;20025;-35
2024/02/19 08:25:56;;;;;;;9.05;3.15;;;10.40;99.90;;;;;;5040350;28;20112;-35
2024/02/19 08:28:21;;;;;;;7.25;2.97;;;10.50;99.90;;;;;;5040261;28;20147;-33
2024/02/19 08:30:47;;;;;;;8.82;3.10;;;10.50;99.90;;;;;;5040778;28;20745;-37
2024/02/19 08:33:13;;;;;;;9.45;2.80;;;10.60;99.90;;;;;;5039777;28;20025;-37
2024/02/19 08:35:38;;;;;;;7.82;3.03;;;10.60;99.90;;;;;;5039198;28;20025;-35
2024/02/19 08:38:05;;;;;;;10.75;3.67;;;10.70;99.90;;;;;;5039578;28;20044;-34
2024/02/19 08:40:30;;;;;;;11.20;4.00;;;10.70;99.90;;;;;;5040232;28;20055;-37
2024/02/19 08:42:56;;;;;;;9.95;3.67;;;10.70;99.90;;;;;;5039141;28;20738;-38
2024/02/19 08:45:22;;;;;;;8.10;3.28;;;10.70;99.90;;;;;;5039958;28;20049;-37
2024/02/19 08:47:47;;;;;;;7.72;3.25;;;10.80;99.90;;;;;;5039934;28;20075;-36
2024/02/19 08:50:13;;;;;;;10.85;3.58;;;10.80;99.90;;;;;;5039248;28;20029;-35
2024/02/19 08:52:39;;;;;;;9.75;3.58;;;10.90;99.90;;;;;;5039908;28;20025;-32
2024/02/19 08:55:05;;;;;;;12.48;3.95;;;11.00;99.90;;;;;;5039503;28;20833;-37
2024/02/19 08:57:30;;;;;;;12.57;3.40;;;11.00;99.90;;;;;;5040077;28;20029;-34
2024/02/19 08:59:56;;;;;;;12.30;3.90;;;11.10;99.90;;;;;;5039931;28;20380;-35
2024/02/19 09:02:21;;;;;;;15.45;4.50;;;11.10;99.90;;;;;;5039707;28;20071;-35
2024/02/19 09:04:47;;;;;;;11.63;4.25;;;11.10;99.90;;;;;;5039962;28;20191;-36
2024/02/19 09:07:14;;;;;;;7.55;3.50;;;11.20;99.90;;;;;;5039479;28;20493;-35
2024/02/19 09:09:45;;;;;;;14.63;3.60;;;11.20;99.90;;;;;;5039078;28;20031;-35
2024/02/19 09:12:11;;;;;;;10.30;3.20;;;11.20;99.90;;;;;;5039843;28;20048;-41
2024/02/19 09:14:37;;;;;;;10.50;4.18;;;11.20;99.90;;;;;;5039102;28;20040;-35
2024/02/19 09:17:04;;;;;;;9.85;3.83;;;11.20;99.90;;;;;;5039826;28;20035;-36
2024/02/19 09:19:31;;;;;;;8.55;4.03;;;11.20;99.90;;;;;;5039930;28;20029;-35
2024/02/19 09:21:57;;;;;;;10.88;3.80;;;11.10;99.90;;;;;;5040143;28;20453;-37
2024/02/19 09:24:23;;;;;;;10.80;4.35;;;11.10;99.90;;;;;;5038897;28;20120;-36
2024/02/19 09:26:48;;;;;;;13.73;4.32;;;11.10;99.90;;;;;;5039744;28;20021;-35
2024/02/19 09:29:15;;;;;;;10.25;3.97;;;11.10;99.90;;;;;;5038568;28;20025;-37
2024/02/19 09:31:40;;;;;;;8.25;3.47;;;11.10;99.90;;;;;;5038788;28;20380;-37
2024/02/19 09:34:06;;;;;;;12.00;4.43;;;11.00;99.90;;;;;;5039391;28;20036;-36
2024/02/19 09:36:32;;;;;;;9.20;3.95;;;11.10;99.90;;;;;;5039048;28;20028;-35
2024/02/19 09:39:03;;;;;;;11.43;4.53;;;11.10;99.90;;;;;;5039070;28;20032;-37
2024/02/19 09:41:29;;;;;;;9.98;4.32;;;11.10;99.90;;;;;;5039749;28;20071;-36
2024/02/19 09:43:55;;;;;;;13.95;5.00;;;11.10;99.90;;;;;;5039090;28;20033;-37
2024/02/19 09:46:22;;;;;;;11.43;4.60;;;11.20;99.90;;;;;;5038135;28;20025;-34
2024/02/19 09:48:49;;;;;;;13.02;4.53;;;11.30;99.90;;;;;;5039815;28;20021;-34
2024/02/19 09:51:25;;;;;;;11.38;3.92;;;11.30;99.90;;;;;;5036737;28;20025;-37
2024/02/19 09:53:51;;;;;;;12.73;4.90;;;11.30;99.90;;;;;;5039208;28;20036;-33
2024/02/19 09:56:22;;;;;;;10.77;3.97;;;11.40;99.90;;;;;;5039551;28;20017;-36
2024/02/19 09:58:48;;;;;;;11.63;4.65;;;11.40;99.90;;;;;;5039249;28;20447;-37
2024/02/19 10:01:14;;;;;;;9.40;4.28;;;11.40;99.90;;;;;;5037958;28;20025;-38
2024/02/19 10:03:40;;;;;;;15.35;4.68;;;11.40;99.90;;;;;;5039822;28;20033;-37
2024/02/19 10:06:06;;;;;;;12.23;5.28;;;11.50;99.90;;;;;;5037400;28;20035;-37
2024/02/19 10:08:32;;;;;;;11.30;4.43;;;11.50;99.90;;;;;;5037308;28;20029;-37
2024/02/19 10:11:00;;;;;;;7.93;4.00;;;11.50;99.90;;;;;;5037432;28;20516;-38
2024/02/19 10:13:26;;;;;;;11.32;4.25;;;11.60;99.90;;;;;;5039554;28;20093;-37
2024/02/19 10:15:52;;;;;;;11.13;3.90;;;11.70;99.90;;;;;;5041510;28;20060;-37
2024/02/19 10:18:19;;;;;;;10.50;4.40;;;11.70;99.90;;;;;;5041866;28;20484;-35
2024/02/19 10:20:51;;;;;;;7.53;4.10;;;11.70;99.90;;;;;;5041789;28;20025;-36
2024/02/19 10:23:19;;;;;;;13.68;4.82;;;11.80;99.90;;;;;;5043170;28;20044;-34
2024/02/19 10:25:45;;;;;;;11.57;5.28;;;11.70;99.90;;;;;;5043460;28;20029;-36
2024/02/19 10:28:11;;;;;;;14.73;5.97;;;11.80;99.90;;;;;;5042171;28;20025;-37
2024/02/19 10:30:36;;;;;;;13.88;6.53;;;11.80;99.90;;;;;;5042248;28;20700;-39
2024/02/19 10:33:02;;;;;;;14.27;6.00;;;11.80;99.90;;;;;;5043001;28;20039;-34
2024/02/19 10:35:32;;;;;;;11.00;6.80;;;11.70;99.90;;;;;;5042304;28;20033;-36
2024/02/19 10:37:59;;;;;;;15.48;6.78;;;11.70;99.90;;;;;;5043142;28;20061;-35
2024/02/19 10:40:28;;;;;;;14.60;6.30;;;11.70;99.90;;;;;;5041816;28;20021;-35
2024/02/19 10:42:56;;;;;;;14.25;7.05;;;11.70;99.90;;;;;;5042710;28;20395;-35
2024/02/19 10:45:22;;;;;;;11.80;6.40;;;11.60;99.90;;;;;;5042160;28;20052;-36
2024/02/19 10:47:52;;;;;;;8.52;6.03;;;11.70;99.90;;;;;;5042528;28;20056;-37
2024/02/19 10:50:20;;;;;;;11.98;5.70;;;11.70;99.90;;;;;;5042198;28;20102;-33
2024/02/19 10:52:47;;;;;;;10.95;6.18;;;11.70;99.90;;;;;;5042420;28;20021;-40
2024/02/19 10:55:17;;;;;;;13.48;5.65;;;11.60;99.90;;;;;;5041827;28;20025;-34
2024/02/19 10:57:51;;;;;;;12.60;5.57;;;11.60;99.90;;;;;;5042916;28;20086;-35
2024/02/19 11:00:19;;;;;;;15.05;6.00;;;11.60;99.90;;;;;;5042275;28;20093;-35
2024/02/19 11:02:47;;;;;;;15.07;5.55;;;11.60;99.90;;;;;;5040705;28;20086;-39
2024/02/19 11:05:13;;;;;;;13.35;5.45;;;11.60;99.90;;;;;;5041734;28;20028;-37
2024/02/19 11:07:40;;;;;;;12.15;5.45;;;11.60;99.90;;;;;;5042168;28;20033;-39
2024/02/19 11:10:06;;;;;;;10.07;5.25;;;11.60;99.90;;;;;;5040922;28;20033;-37
2024/02/19 11:12:32;;;;;;;9.73;4.95;;;11.60;99.90;;;;;;5041122;28;20060;-37
2024/02/19 11:14:58;;;;;;;7.93;4.70;;;11.70;99.90;;;;;;5041727;28;20100;-42
2024/02/19 11:17:24;;;;;;;8.60;4.43;;;11.70;99.90;;;;;;5040930;28;20115;-35
2024/02/19 11:19:54;;;;;;;9.50;4.75;;;11.60;99.90;;;;;;5041735;28;20032;-38
2024/02/19 11:22:29;;;;;;;9.85;5.03;;;11.70;99.90;;;;;;5041294;28;20068;-37
2024/02/19 11:24:57;;;;;;;11.18;5.18;;;11.70;99.90;;;;;;5039937;28;20579;-33
2024/02/19 11:27:23;;;;;;;8.55;4.60;;;11.70;99.90;;;;;;5041025;28;20024;-31
2024/02/19 11:29:59;;;;;;;9.30;4.75;;;11.70;99.90;;;;;;5041308;28;20551;-37
2024/02/19 11:32:25;;;;;;;8.10;4.40;;;11.80;99.90;;;;;;5041573;28;20037;-38
2024/02/19 11:34:51;;;;;;;11.32;5.53;;;11.80;99.90;;;;;;5041408;28;20495;-38
2024/02/19 11:37:17;;;;;;;11.27;5.20;;;11.70;99.90;;;;;;5040891;28;20091;-37
2024/02/19 11:39:44;;;;;;;13.02;5.07;;;11.80;99.90;;;;;;5041608;28;20074;-34
2024/02/19 11:42:14;;;;;;;8.07;4.70;;;11.70;99.90;;;;;;5040693;28;20248;-34
2024/02/19 11:44:41;;;;;;;11.10;4.75;;;11.80;99.90;;;;;;5039944;28;20472;-35
2024/02/19 11:47:09;;;;;;;9.32;4.68;;;11.80;99.90;;;;;;5041609;28;20031;-38
2024/02/19 11:49:36;;;;;;;11.32;4.43;;;11.80;99.90;;;;;;5040592;28;20035;-33
2024/02/19 11:52:04;;;;;;;8.43;4.30;;;11.80;99.90;;;;;;5040734;28;20036;-35
2024/02/19 11:54:30;;;;;;;6.60;3.80;;;11.80;99.90;;;;;;5040643;28;20025;-37
2024/02/19 11:56:57;;;;;;;8.25;4.05;;;11.80;99.90;;;;;;5041419;28;20638;-37
2024/02/19 11:59:24;;;;;;;13.95;4.72;;;11.80;99.90;;;;;;5039434;28;20170;-35
2024/02/19 12:01:57;;;;;;;7.80;3.78;;;11.90;99.90;;;;;;5039023;28;20025;-38
2024/02/19 12:04:24;;;;;;;6.72;3.50;;;11.90;99.90;;;;;;5039904;28;20089;-37
2024/02/19 12:06:50;;;;;;;8.02;3.60;;;11.90;99.90;;;;;;5038844;28;20017;-35
2024/02/19 12:09:16;;;;;;;8.13;4.45;;;12.00;99.90;;;;;;5039278;28;20025;-36
2024/02/19 12:11:45;;;;;;;11.23;4.72;;;12.00;99.90;;;;;;5039859;28;20045;-36
2024/02/19 12:14:13;;;;;;;9.85;4.20;;;12.00;99.90;;;;;;5038860;28;20021;-36
2024/02/19 12:16:39;;;;;;;11.82;5.00;;;12.00;99.90;;;;;;5040336;28;20033;-35
2024/02/19 12:19:05;;;;;;;13.13;5.35;;;12.00;99.90;;;;;;5039682;28;20403;-36
2024/02/19 12:21:32;;;;;;;9.38;4.72;;;11.90;99.90;;;;;;5040431;28;20033;-36
2024/02/19 12:24:00;;;;;;;11.82;4.50;;;11.90;99.90;;;;;;5040101;28;20315;-34
2024/02/19 12:26:26;;;;;;;8.80;4.45;;;11.90;99.90;;;;;;5039029;28;20551;-38
2024/02/19 12:28:51;;;;;;;8.50;4.22;;;11.90;99.90;;;;;;5040646;28;20037;-35
2024/02/19 12:31:17;;;;;;;10.70;4.43;;;11.90;99.90;;;;;;5039837;28;20029;-33
2024/02/19 12:33:43;;;;;;;9.32;3.97;;;11.90;99.90;;;;;;5040344;28;20033;-38
2024/02/19 12:36:13;;;;;;;9.50;3.70;;;11.90;99.90;;;;;;5039947;28;20112;-34
2024/02/19 12:38:43;;;;;;;10.63;4.75;;;11.90;99.90;;;;;;5040353;28;20148;-34
2024/02/19 12:41:12;;;;;;;9.27;5.35;;;11.90;99.90;;;;;;5039273;28;20035;-33
2024/02/19 12:43:38;;;;;;;8.20;4.05;;;12.00;99.90;;;;;;5040622;28;20475;-36